createdAt,value
2018-11-29T00:00:39.740Z,21.62
2018-11-29T00:03:09.051Z,19.15
2018-11-29T00:05:37.452Z,22.27
2018-11-29T00:08:05.516Z,22.32
2018-11-29T00:10:33.993Z,23.62
2018-11-29T00:13:02.345Z,22.55
2018-11-29T00:15:30.638Z,22.20
2018-11-29T00:17:58.947Z,22.67
2018-11-29T00:20:27.292Z,23.10
2018-11-29T00:22:55.448Z,22.60
2018-11-29T00:25:23.723Z,22.73
2018-11-29T00:27:52.177Z,22.73
2018-11-29T00:30:22.693Z,22.48
2018-11-29T00:32:51.972Z,22.17
2018-11-29T00:35:20.488Z,20.95
2018-11-29T00:37:48.856Z,20.10
2018-11-29T00:40:20.761Z,21.00
2018-11-29T00:42:48.988Z,22.87
2018-11-29T00:45:19.812Z,22.42
2018-11-29T00:47:48.322Z,22.62
2018-11-29T00:50:17.254Z,22.48
2018-11-29T00:52:52.163Z,23.60
2018-11-29T00:55:21.273Z,23.12
2018-11-29T00:57:49.592Z,21.30
2018-11-29T01:00:19.675Z,21.17
2018-11-29T01:02:47.970Z,22.48
2018-11-29T01:05:16.284Z,21.85
2018-11-29T01:07:44.630Z,20.40
2018-11-29T01:10:15.589Z,19.02
2018-11-29T01:12:44.391Z,21.35
2018-11-29T01:15:13.599Z,22.30
2018-11-29T01:17:41.600Z,21.93
2018-11-29T01:20:11.018Z,22.42
2018-11-29T01:22:39.338Z,22.77
2018-11-29T01:25:08.986Z,24.15
2018-11-29T01:27:37.203Z,23.38
2018-11-29T01:30:09.305Z,23.02
2018-11-29T01:32:37.729Z,23.05
2018-11-29T01:35:06.491Z,25.15
2018-11-29T01:37:35.123Z,25.02
2018-11-29T01:40:03.717Z,23.45
2018-11-29T01:42:32.203Z,23.62
2018-11-29T01:45:00.733Z,24.50
2018-11-29T01:47:29.061Z,22.45
2018-11-29T01:49:57.054Z,22.35
2018-11-29T01:52:25.346Z,21.48
2018-11-29T01:54:53.673Z,22.62
2018-11-29T01:57:22.071Z,23.07
2018-11-29T01:59:50.391Z,24.27
2018-11-29T02:02:18.688Z,20.75
2018-11-29T02:04:47.011Z,21.65
2018-11-29T02:07:15.296Z,22.30
2018-11-29T02:09:43.520Z,21.93
2018-11-29T02:12:11.767Z,22.10
2018-11-29T02:14:40.126Z,21.50
2018-11-29T02:17:08.180Z,21.27
2018-11-29T02:19:36.502Z,19.65
2018-11-29T02:22:04.701Z,19.95
2018-11-29T02:24:32.697Z,22.48
2018-11-29T02:27:01.007Z,23.00
2018-11-29T02:29:29.213Z,21.65
2018-11-29T02:31:57.431Z,19.30
2018-11-29T02:34:25.730Z,20.40
2018-11-29T02:36:54.014Z,21.73
2018-11-29T02:39:22.252Z,20.85
2018-11-29T02:41:50.635Z,19.05
2018-11-29T02:44:18.923Z,18.92
2018-11-29T02:46:47.188Z,19.55
2018-11-29T02:49:15.427Z,19.77
2018-11-29T02:51:43.597Z,17.35
2018-11-29T02:54:11.618Z,17.60
2018-11-29T02:56:39.844Z,18.48
2018-11-29T02:59:08.094Z,15.10
2018-11-29T03:01:36.158Z,18.02
2018-11-29T03:04:04.399Z,17.02
2018-11-29T03:06:32.645Z,16.87
2018-11-29T03:09:00.972Z,15.70
2018-11-29T03:11:29.351Z,16.05
2018-11-29T03:13:57.692Z,14.75
2018-11-29T03:16:26.014Z,15.20
2018-11-29T03:18:54.135Z,16.30
2018-11-29T03:21:22.442Z,18.37
2018-11-29T03:23:50.525Z,18.10
2018-11-29T03:26:18.896Z,15.95
2018-11-29T03:28:47.182Z,17.05
2018-11-29T03:31:15.500Z,15.08
2018-11-29T03:33:43.767Z,16.12
2018-11-29T03:36:12.026Z,14.87
2018-11-29T03:38:40.364Z,15.08
2018-11-29T03:41:08.681Z,17.07
2018-11-29T03:43:37.042Z,16.93
2018-11-29T03:46:05.644Z,15.60
2018-11-29T03:48:33.890Z,16.57
2018-11-29T03:51:02.222Z,15.58
2018-11-29T03:53:30.510Z,15.78
2018-11-29T03:55:58.554Z,18.00
2018-11-29T03:58:26.862Z,15.48
2018-11-29T04:00:55.141Z,15.25
2018-11-29T04:03:23.490Z,15.85
2018-11-29T04:05:51.847Z,15.15
2018-11-29T04:08:20.223Z,14.35
2018-11-29T04:10:48.707Z,13.68
2018-11-29T04:13:17.066Z,13.20
2018-11-29T04:15:45.114Z,13.62
2018-11-29T04:18:13.433Z,14.07
2018-11-29T04:20:41.413Z,13.35
2018-11-29T04:23:09.465Z,15.53
2018-11-29T04:25:37.806Z,14.50
2018-11-29T04:28:06.269Z,13.58
2018-11-29T04:30:34.505Z,13.15
2018-11-29T04:33:02.770Z,14.73
2018-11-29T04:35:31.030Z,13.40
2018-11-29T04:37:59.359Z,15.53
2018-11-29T04:40:27.650Z,15.25
2018-11-29T04:42:55.905Z,13.75
2018-11-29T04:45:24.214Z,13.43
2018-11-29T04:47:52.473Z,13.48
2018-11-29T04:50:20.730Z,15.45
2018-11-29T04:52:48.982Z,15.95
2018-11-29T04:55:17.246Z,14.65
2018-11-29T04:57:45.501Z,14.38
2018-11-29T05:00:14.763Z,15.25
2018-11-29T05:02:43.225Z,14.68
2018-11-29T05:05:12.265Z,13.20
2018-11-29T05:07:40.298Z,14.43
2018-11-29T05:10:10.121Z,14.50
2018-11-29T05:12:38.480Z,12.85
2018-11-29T05:15:08.550Z,13.22
2018-11-29T05:17:36.546Z,10.70
2018-11-29T05:20:05.790Z,11.93
2018-11-29T05:22:33.797Z,13.85
2018-11-29T05:25:01.885Z,14.43
2018-11-29T05:27:30.174Z,14.45
2018-11-29T05:29:58.442Z,12.95
2018-11-29T05:32:26.428Z,14.35
2018-11-29T05:34:54.641Z,14.03
2018-11-29T05:37:22.920Z,14.55
2018-11-29T05:39:51.133Z,15.10
2018-11-29T05:42:19.404Z,14.83
2018-11-29T05:44:47.664Z,14.95
2018-11-29T05:47:15.975Z,14.83
2018-11-29T05:49:44.307Z,14.58
2018-11-29T05:52:12.319Z,15.40
2018-11-29T05:54:40.645Z,14.23
2018-11-29T05:57:08.958Z,15.72
2018-11-29T05:59:37.262Z,14.87
2018-11-29T06:02:05.612Z,14.70
2018-11-29T06:04:33.889Z,16.40
2018-11-29T06:07:02.060Z,13.75
2018-11-29T06:09:30.297Z,14.87
2018-11-29T06:11:58.613Z,14.30
2018-11-29T06:14:26.838Z,12.90
2018-11-29T06:16:54.889Z,12.28
2018-11-29T06:19:22.930Z,13.65
2018-11-29T06:21:51.164Z,13.93
2018-11-29T06:24:19.455Z,12.30
2018-11-29T06:26:47.719Z,15.38
2018-11-29T06:29:15.916Z,15.40
2018-11-29T06:31:44.145Z,15.55
2018-11-29T06:34:12.506Z,21.57
2018-11-29T06:36:40.675Z,20.40
2018-11-29T06:39:09.416Z,14.98
2018-11-29T06:41:37.652Z,12.82
2018-11-29T06:44:05.649Z,14.90
2018-11-29T06:46:33.930Z,17.20
2018-11-29T06:49:02.243Z,16.42
2018-11-29T06:51:30.535Z,17.35
2018-11-29T06:53:59.588Z,19.32
2018-11-29T06:56:27.906Z,17.50
2018-11-29T06:58:56.164Z,16.00
2018-11-29T07:01:24.441Z,16.77
2018-11-29T07:03:52.763Z,16.90
2018-11-29T07:06:21.012Z,18.95
2018-11-29T07:08:49.376Z,15.30
2018-11-29T07:11:17.615Z,13.98
2018-11-29T07:13:45.681Z,13.78
2018-11-29T07:16:13.724Z,14.55
2018-11-29T07:18:41.698Z,14.68
2018-11-29T07:21:15.297Z,13.70
2018-11-29T07:23:43.558Z,12.93
2018-11-29T07:26:11.946Z,14.38
2018-11-29T07:28:40.166Z,15.45
2018-11-29T07:31:08.427Z,14.30
2018-11-29T07:33:36.700Z,16.42
2018-11-29T07:36:05.402Z,16.20
2018-11-29T07:38:33.643Z,14.65
2018-11-29T07:41:01.838Z,15.63
2018-11-29T07:43:30.070Z,15.98
2018-11-29T07:45:58.300Z,15.03
2018-11-29T07:48:26.781Z,15.68
2018-11-29T07:50:55.328Z,16.00
2018-11-29T07:53:23.565Z,15.35
2018-11-29T07:55:51.793Z,16.30
2018-11-29T07:58:20.049Z,17.62
2018-11-29T08:00:48.251Z,17.37
2018-11-29T08:03:16.501Z,16.87
2018-11-29T08:05:44.871Z,13.45
2018-11-29T08:08:13.138Z,13.32
2018-11-29T08:10:41.367Z,14.03
2018-11-29T08:13:09.399Z,13.15
2018-11-29T08:15:37.416Z,15.30
2018-11-29T08:18:06.676Z,14.73
2018-11-29T08:20:34.934Z,14.43
2018-11-29T08:23:03.264Z,13.85
2018-11-29T08:25:31.559Z,13.75
2018-11-29T08:27:59.820Z,12.05
2018-11-29T08:30:28.084Z,11.95
2018-11-29T08:32:56.405Z,12.07
2018-11-29T08:35:24.642Z,11.73
2018-11-29T08:37:52.907Z,10.82
2018-11-29T08:40:21.586Z,12.37
2018-11-29T08:42:49.856Z,11.38
2018-11-29T08:45:18.106Z,12.75
2018-11-29T08:47:46.571Z,10.88
2018-11-29T08:50:15.314Z,10.72
2018-11-29T08:52:45.343Z,9.80
2018-11-29T08:57:39.396Z,11.75
2018-11-29T09:00:26.509Z,13.32
2018-11-29T09:02:54.825Z,13.13
2018-11-29T09:05:23.090Z,20.17
2018-11-29T09:07:51.355Z,17.35
2018-11-29T09:10:20.827Z,18.80
2018-11-29T09:12:49.086Z,17.00
2018-11-29T09:15:17.831Z,11.12
2018-11-29T09:17:46.218Z,8.75
2018-11-29T09:20:15.510Z,8.80
2018-11-29T09:22:43.553Z,9.55
2018-11-29T09:25:12.070Z,9.78
2018-11-29T09:27:40.387Z,9.45
2018-11-29T09:30:14.079Z,10.23
2018-11-29T09:32:42.771Z,13.43
2018-11-29T09:35:11.135Z,19.30
2018-11-29T09:37:39.698Z,12.43
2018-11-29T09:40:10.819Z,11.90
2018-11-29T09:42:39.517Z,12.40
2018-11-29T09:45:12.177Z,11.00
2018-11-29T09:47:40.439Z,13.50
2018-11-29T09:50:10.551Z,11.57
2018-11-29T09:52:39.355Z,13.07
2018-11-29T09:55:09.584Z,12.00
2018-11-29T09:57:37.834Z,12.23
2018-11-29T10:00:27.041Z,10.50
2018-11-29T10:02:51.490Z,12.93
2018-11-29T10:05:19.737Z,10.90
2018-11-29T10:07:47.995Z,9.90
2018-11-29T10:10:16.223Z,12.13
2018-11-29T10:12:44.487Z,11.77
2018-11-29T10:15:13.039Z,12.50
2018-11-29T10:17:41.336Z,11.50
2018-11-29T10:20:10.796Z,10.10
2018-11-29T10:22:39.593Z,11.57
2018-11-29T10:25:13.252Z,10.17
2018-11-29T10:27:42.836Z,9.20
2018-11-29T10:30:18.177Z,7.20
2018-11-29T10:32:46.537Z,7.00
2018-11-29T10:35:14.745Z,5.87
2018-11-29T10:37:42.994Z,5.80
2018-11-29T10:40:11.325Z,5.17
2018-11-29T10:42:39.581Z,10.00
2018-11-29T10:45:08.855Z,7.60
2018-11-29T10:47:37.105Z,7.27
2018-11-29T10:50:07.977Z,6.60
2018-11-29T10:52:36.219Z,6.13
2018-11-29T10:55:04.623Z,5.73
2018-11-29T10:57:32.927Z,4.90
2018-11-29T11:00:01.202Z,5.43
2018-11-29T11:02:30.188Z,5.97
2018-11-29T11:04:58.495Z,5.70
2018-11-29T11:07:26.800Z,5.53
2018-11-29T11:09:55.159Z,5.77
2018-11-29T11:12:23.431Z,5.07
2018-11-29T11:14:51.719Z,5.50
2018-11-29T11:17:20.013Z,6.03
2018-11-29T11:19:48.325Z,5.40
2018-11-29T11:22:16.673Z,5.80
2018-11-29T11:24:44.931Z,5.40
2018-11-29T11:27:13.196Z,5.23
2018-11-29T11:29:41.557Z,5.00
2018-11-29T11:32:09.814Z,5.30
2018-11-29T11:34:38.113Z,5.37
2018-11-29T11:37:06.300Z,5.20
2018-11-29T11:39:34.641Z,4.60
2018-11-29T11:42:02.953Z,4.70
2018-11-29T11:44:31.229Z,5.63
2018-11-29T11:46:59.493Z,5.60
2018-11-29T11:49:27.862Z,6.33
2018-11-29T11:51:56.108Z,6.20
2018-11-29T11:54:24.310Z,5.77
2018-11-29T11:56:52.618Z,6.50
2018-11-29T11:59:20.850Z,6.43
2018-11-29T12:01:49.169Z,6.30
2018-11-29T12:04:17.373Z,7.10
2018-11-29T12:06:45.604Z,6.00
2018-11-29T12:09:13.851Z,6.70
2018-11-29T12:11:42.101Z,6.63
2018-11-29T12:14:10.374Z,6.40
2018-11-29T12:16:38.742Z,6.80
2018-11-29T12:19:07.006Z,5.77
2018-11-29T12:21:35.267Z,6.27
2018-11-29T12:24:03.629Z,5.87
2018-11-29T12:26:31.969Z,6.10
2018-11-29T12:29:00.287Z,6.50
2018-11-29T12:31:28.621Z,7.40
2018-11-29T12:33:56.881Z,9.03
2018-11-29T12:36:25.299Z,8.13
2018-11-29T12:38:53.488Z,7.63
2018-11-29T12:41:21.732Z,7.37
2018-11-29T12:43:49.797Z,7.83
2018-11-29T12:46:17.885Z,7.67
2018-11-29T12:48:46.179Z,7.67
2018-11-29T12:51:14.460Z,8.70
2018-11-29T12:53:42.735Z,8.13
2018-11-29T12:56:11.166Z,8.83
2018-11-29T12:58:39.442Z,8.30
2018-11-29T13:01:07.672Z,8.90
2018-11-29T13:03:35.946Z,7.87
2018-11-29T13:06:04.243Z,8.53
2018-11-29T13:08:32.511Z,9.23
2018-11-29T13:11:00.749Z,8.27
2018-11-29T13:13:28.999Z,8.93
2018-11-29T13:15:57.262Z,9.70
2018-11-29T13:18:25.499Z,8.70
2018-11-29T13:21:00.336Z,8.30
2018-11-29T13:23:28.596Z,8.90
2018-11-29T13:25:56.862Z,8.43
2018-11-29T13:28:25.151Z,9.20
2018-11-29T13:30:53.639Z,9.57
2018-11-29T13:33:21.779Z,8.47
2018-11-29T13:35:50.048Z,8.53
2018-11-29T13:38:18.309Z,8.03
2018-11-29T13:40:49.101Z,8.40
2018-11-29T13:43:17.114Z,8.90
2018-11-29T13:45:45.391Z,10.17
2018-11-29T13:48:14.034Z,8.77
2018-11-29T13:50:42.368Z,9.47
2018-11-29T13:53:10.553Z,9.33
2018-11-29T13:55:39.032Z,10.73
2018-11-29T13:58:07.241Z,10.00
2018-11-29T14:00:35.579Z,11.10
2018-11-29T14:03:09.164Z,10.40
2018-11-29T14:05:37.353Z,9.73
2018-11-29T14:08:06.637Z,8.57
2018-11-29T14:10:34.977Z,10.23
2018-11-29T14:13:03.255Z,9.10
2018-11-29T14:15:31.510Z,10.10
2018-11-29T14:17:59.685Z,9.47
2018-11-29T14:20:28.003Z,10.30
2018-11-29T14:22:56.228Z,9.83
2018-11-29T14:25:24.439Z,11.00
2018-11-29T14:27:54.886Z,13.20
2018-11-29T14:30:26.153Z,13.13
2018-11-29T14:32:55.578Z,10.90
2018-11-29T14:35:23.793Z,12.03
2018-11-29T14:37:52.067Z,11.43
2018-11-29T14:40:23.107Z,10.97
2018-11-29T14:42:51.671Z,10.30
2018-11-29T14:45:21.726Z,11.47
2018-11-29T14:47:49.994Z,9.90
2018-11-29T14:50:22.635Z,11.00
2018-11-29T14:52:50.714Z,10.63
2018-11-29T14:55:18.983Z,11.53
2018-11-29T14:57:47.211Z,11.53
2018-11-29T15:00:15.435Z,10.80
2018-11-29T15:02:43.842Z,10.43
2018-11-29T15:05:16.458Z,9.97
2018-11-29T15:07:44.721Z,10.77
2018-11-29T15:10:12.979Z,12.20
2018-11-29T15:12:41.271Z,12.77
2018-11-29T15:15:11.471Z,13.87
2018-11-29T15:17:40.584Z,12.67
2018-11-29T15:20:13.215Z,13.80
2018-11-29T15:22:41.489Z,12.60
2018-11-29T15:25:09.713Z,15.73
2018-11-29T15:27:37.970Z,18.80
2018-11-29T15:30:09.608Z,18.90
2018-11-29T15:32:37.880Z,19.60
2018-11-29T15:35:06.692Z,19.00
2018-11-29T15:37:35.082Z,18.53
2018-11-29T15:40:03.275Z,19.97
2018-11-29T15:42:31.627Z,25.90
2018-11-29T15:44:59.859Z,28.07
2018-11-29T15:47:28.038Z,24.03
2018-11-29T15:49:56.316Z,19.30
2018-11-29T15:52:24.584Z,18.40
2018-11-29T15:54:52.553Z,23.37
2018-11-29T15:57:20.604Z,20.23
2018-11-29T15:59:48.557Z,79.60
2018-11-29T16:02:16.489Z,27.73
2018-11-29T16:04:44.835Z,27.40
2018-11-29T16:07:13.296Z,22.67
2018-11-29T16:09:41.772Z,26.43
2018-11-29T16:12:10.132Z,23.37
2018-11-29T16:14:38.667Z,21.00
2018-11-29T16:17:07.073Z,33.67
2018-11-29T16:19:35.477Z,19.93
2018-11-29T16:22:03.919Z,16.37
2018-11-29T16:24:32.368Z,15.10
2018-11-29T16:27:00.818Z,25.30
2018-11-29T16:29:29.210Z,52.07
2018-11-29T16:31:57.639Z,35.00
2018-11-29T16:34:26.070Z,18.70
2018-11-29T16:36:54.564Z,16.20
2018-11-29T16:39:23.176Z,15.60
2018-11-29T16:41:51.605Z,17.27
2018-11-29T16:44:20.064Z,19.87
2018-11-29T16:46:48.509Z,19.63
2018-11-29T16:49:16.946Z,22.93
2018-11-29T16:51:45.343Z,22.20
2018-11-29T16:54:13.492Z,19.93
2018-11-29T16:56:41.601Z,21.47
2018-11-29T16:59:09.767Z,24.30
2018-11-29T17:01:38.270Z,31.00
2018-11-29T17:04:06.814Z,28.80
2018-11-29T17:06:35.236Z,23.87
2018-11-29T17:09:03.869Z,20.20
2018-11-29T17:11:32.294Z,18.27
2018-11-29T17:14:00.366Z,22.85
2018-11-29T17:16:28.739Z,29.53
2018-11-29T17:18:57.175Z,20.70
2018-11-29T17:21:25.609Z,21.47
2018-11-29T17:23:54.060Z,23.50
2018-11-29T17:26:22.534Z,23.60
2018-11-29T17:28:50.828Z,26.90
2018-11-29T17:31:19.131Z,29.93
2018-11-29T17:33:47.379Z,26.20
2018-11-29T17:36:15.649Z,29.50
2018-11-29T17:38:44.004Z,26.50
2018-11-29T17:41:12.280Z,24.37
2018-11-29T17:43:40.532Z,30.03
2018-11-29T17:46:08.784Z,23.03
2018-11-29T17:48:37.066Z,20.80
2018-11-29T17:51:05.363Z,25.80
2018-11-29T17:53:33.445Z,36.83
2018-11-29T17:56:01.607Z,25.27
2018-11-29T17:58:29.993Z,28.17
2018-11-29T18:00:58.257Z,22.63
2018-11-29T18:03:26.614Z,19.73
2018-11-29T18:05:55.006Z,19.20
2018-11-29T18:08:23.299Z,22.15
2018-11-29T18:10:54.175Z,35.30
2018-11-29T18:13:25.398Z,32.65
2018-11-29T18:15:53.783Z,33.47
2018-11-29T18:18:22.142Z,33.33
2018-11-29T18:20:50.481Z,31.10
2018-11-29T18:23:18.693Z,35.70
2018-11-29T18:25:46.960Z,34.03
2018-11-29T18:28:15.479Z,37.23
2018-11-29T18:30:43.663Z,31.80
2018-11-29T18:33:11.968Z,25.97
2018-11-29T18:35:40.273Z,25.53
2018-11-29T18:38:08.516Z,26.73
2018-11-29T18:40:36.762Z,26.73
2018-11-29T18:43:06.670Z,23.80
2018-11-29T18:45:34.924Z,24.20
2018-11-29T18:48:03.222Z,24.23
2018-11-29T18:50:31.487Z,25.62
2018-11-29T18:52:59.554Z,27.60
2018-11-29T18:55:27.595Z,28.50
2018-11-29T18:57:56.287Z,28.85
2018-11-29T19:00:26.461Z,34.17
2018-11-29T19:02:57.075Z,30.87
2018-11-29T19:05:23.172Z,44.60
2018-11-29T19:07:51.444Z,39.77
2018-11-29T19:10:20.307Z,29.97
2018-11-29T19:12:57.967Z,26.33
2018-11-29T19:15:26.250Z,25.70
2018-11-29T19:17:54.509Z,26.00
2018-11-29T19:20:22.788Z,24.00
2018-11-29T19:22:51.036Z,26.10
2018-11-29T19:25:19.956Z,23.57
2018-11-29T19:27:48.350Z,20.80
2018-11-29T19:30:19.742Z,22.90
2018-11-29T19:32:50.005Z,21.47
2018-11-29T19:35:18.353Z,23.70
2018-11-29T19:37:46.631Z,22.40
2018-11-29T19:40:15.861Z,31.03
2018-11-29T19:42:44.210Z,25.20
2018-11-29T19:45:14.657Z,26.10
2018-11-29T19:47:42.972Z,28.60
2018-11-29T19:50:20.676Z,31.13
2018-11-29T19:52:52.043Z,28.10
2018-11-29T19:55:24.744Z,26.20
2018-11-29T19:57:53.166Z,27.50
2018-11-29T20:00:21.469Z,28.20
2018-11-29T20:02:51.217Z,28.70
2018-11-29T20:05:19.505Z,32.43
2018-11-29T20:07:47.915Z,29.10
2018-11-29T20:10:17.359Z,27.30
2018-11-29T20:12:46.883Z,36.27
2018-11-29T20:15:15.793Z,36.33
2018-11-29T20:17:44.104Z,34.40
2018-11-29T20:20:12.578Z,29.80
2018-11-29T20:22:41.200Z,31.37
2018-11-29T20:25:16.545Z,29.93
2018-11-29T20:27:44.976Z,28.37
2018-11-29T20:30:21.009Z,30.63
2018-11-29T20:32:50.522Z,30.47
2018-11-29T20:35:19.010Z,30.40
2018-11-29T20:37:48.042Z,31.70
2018-11-29T20:40:21.489Z,30.63
2018-11-29T20:42:50.494Z,28.37
2018-11-29T20:45:22.172Z,31.20
2018-11-29T20:47:50.547Z,34.03
2018-11-29T20:50:19.966Z,30.77
2018-11-29T20:52:49.040Z,31.13
2018-11-29T20:55:22.423Z,33.83
2018-11-29T20:57:50.709Z,33.57
2018-11-29T21:00:19.020Z,31.40
2018-11-29T21:02:47.269Z,32.97
2018-11-29T21:05:16.829Z,29.83
2018-11-29T21:07:46.551Z,30.33
2018-11-29T21:10:17.176Z,31.40
2018-11-29T21:12:45.393Z,35.73
2018-11-29T21:15:13.636Z,30.20
2018-11-29T21:17:41.892Z,29.47
2018-11-29T21:20:12.562Z,27.27
2018-11-29T21:22:41.191Z,26.43
2018-11-29T21:25:11.841Z,21.67
2018-11-29T21:27:39.815Z,25.60
2018-11-29T21:30:09.198Z,26.10
2018-11-29T21:32:37.184Z,25.67
2018-11-29T21:35:05.688Z,25.90
2018-11-29T21:37:34.027Z,25.13
2018-11-29T21:40:02.266Z,34.40
2018-11-29T21:42:30.519Z,26.63
2018-11-29T21:44:58.800Z,31.30
2018-11-29T21:47:27.100Z,30.93
2018-11-29T21:49:55.407Z,31.20
2018-11-29T21:52:23.755Z,29.03
2018-11-29T21:54:52.054Z,23.30
2018-11-29T21:57:20.324Z,26.50
2018-11-29T21:59:48.773Z,23.65
2018-11-29T22:02:16.976Z,23.00
2018-11-29T22:04:45.219Z,22.70
2018-11-29T22:07:13.483Z,23.47
2018-11-29T22:09:42.122Z,22.83
2018-11-29T22:12:10.389Z,25.07
2018-11-29T22:14:38.652Z,26.43
2018-11-29T22:17:06.931Z,24.60
2018-11-29T22:19:35.237Z,23.97
2018-11-29T22:22:03.518Z,21.30
2018-11-29T22:24:31.531Z,23.90
2018-11-29T22:26:59.527Z,25.97
2018-11-29T22:29:27.792Z,27.60
2018-11-29T22:31:56.102Z,29.90
2018-11-29T22:34:24.360Z,25.20
2018-11-29T22:36:52.647Z,30.20
2018-11-29T22:39:20.693Z,25.70
2018-11-29T22:41:49.011Z,26.83
2018-11-29T22:44:17.216Z,27.30
2018-11-29T22:46:45.532Z,28.30
2018-11-29T22:49:13.854Z,28.83
2018-11-29T22:51:42.078Z,32.20
2018-11-29T22:54:10.389Z,28.03
2018-11-29T22:56:38.582Z,28.30
2018-11-29T22:59:06.908Z,26.37
2018-11-29T23:01:35.252Z,27.53
2018-11-29T23:04:03.590Z,28.53
2018-11-29T23:06:31.985Z,26.73
2018-11-29T23:09:00.291Z,26.60
2018-11-29T23:11:28.590Z,25.47
2018-11-29T23:13:56.928Z,26.43
2018-11-29T23:16:25.282Z,25.50
2018-11-29T23:18:53.537Z,24.30
2018-11-29T23:21:21.905Z,21.60
2018-11-29T23:23:50.160Z,22.03
2018-11-29T23:26:18.189Z,20.90
2018-11-29T23:28:46.242Z,22.93
2018-11-29T23:31:14.651Z,21.77
2018-11-29T23:33:43.072Z,24.40
2018-11-29T23:36:11.377Z,21.97
2018-11-29T23:38:39.773Z,20.93
2018-11-29T23:41:08.076Z,21.47
2018-11-29T23:43:36.430Z,19.93
2018-11-29T23:46:04.792Z,23.13
2018-11-29T23:48:33.089Z,24.20
2018-11-29T23:51:01.514Z,25.13
2018-11-29T23:53:29.736Z,24.77
2018-11-29T23:55:58.067Z,23.27
2018-11-29T23:58:26.336Z,22.20
